createdAt,value
2019-02-10T00:01:11.331Z,5.30
2019-02-10T00:03:41.067Z,5.30
2019-02-10T00:06:10.467Z,5.30
2019-02-10T00:08:39.451Z,5.30
2019-02-10T00:11:08.830Z,5.30
2019-02-10T00:13:39.137Z,5.30
2019-02-10T00:16:16.654Z,5.30
2019-02-10T00:18:45.982Z,5.30
2019-02-10T00:21:15.349Z,5.30
2019-02-10T00:23:44.421Z,5.30
2019-02-10T00:26:13.878Z,5.30
2019-02-10T00:28:43.117Z,5.20
2019-02-10T00:31:12.116Z,5.20
2019-02-10T00:33:41.177Z,5.20
2019-02-10T00:36:10.260Z,5.20
2019-02-10T00:38:39.720Z,5.10
2019-02-10T00:41:09.153Z,5.10
2019-02-10T00:43:38.442Z,5.00
2019-02-10T00:46:07.844Z,5.00
2019-02-10T00:48:37.308Z,5.00
2019-02-10T00:51:06.597Z,4.90
2019-02-10T00:53:35.688Z,4.90
2019-02-10T00:56:04.753Z,4.90
2019-02-10T00:58:33.854Z,4.90
2019-02-10T01:01:02.912Z,4.90
2019-02-10T01:03:31.997Z,4.90
2019-02-10T01:06:01.185Z,4.90
2019-02-10T01:08:30.148Z,4.90
2019-02-10T01:10:59.537Z,5.00
2019-02-10T01:13:28.685Z,5.00
2019-02-10T01:15:58.025Z,5.00
2019-02-10T01:18:26.966Z,5.00
2019-02-10T01:20:56.310Z,5.00
2019-02-10T01:23:25.496Z,5.00
2019-02-10T01:25:54.699Z,5.00
2019-02-10T01:28:23.813Z,5.10
2019-02-10T01:30:52.913Z,5.10
2019-02-10T01:33:22.161Z,5.20
2019-02-10T01:35:51.622Z,5.30
2019-02-10T01:38:20.913Z,5.30
2019-02-10T01:40:49.968Z,5.30
2019-02-10T01:43:19.390Z,5.30
2019-02-10T01:45:48.476Z,5.30
2019-02-10T01:48:17.917Z,5.30
2019-02-10T01:50:47.334Z,5.30
2019-02-10T01:53:16.421Z,5.20
2019-02-10T01:55:45.518Z,5.20
2019-02-10T01:58:14.507Z,5.20
2019-02-10T02:00:44.173Z,5.20
2019-02-10T02:03:13.499Z,5.20
2019-02-10T02:05:42.703Z,5.20
2019-02-10T02:08:11.697Z,5.10
2019-02-10T02:10:40.764Z,5.10
2019-02-10T02:13:09.808Z,5.10
2019-02-10T02:15:38.849Z,5.10
2019-02-10T02:18:07.984Z,5.10
2019-02-10T02:20:37.084Z,5.10
2019-02-10T02:23:06.166Z,5.20
2019-02-10T02:25:35.277Z,5.20
2019-02-10T02:28:04.355Z,5.20
2019-02-10T02:30:33.791Z,5.30
2019-02-10T02:33:03.508Z,5.30
2019-02-10T02:35:32.576Z,5.30
2019-02-10T02:38:01.704Z,5.30
2019-02-10T02:40:30.798Z,5.20
2019-02-10T02:42:59.758Z,5.20
2019-02-10T02:45:29.021Z,5.20
2019-02-10T02:47:58.189Z,5.20
2019-02-10T02:50:27.280Z,5.20
2019-02-10T02:52:56.306Z,5.20
2019-02-10T02:55:25.653Z,5.10
2019-02-10T02:57:54.736Z,5.10
2019-02-10T03:00:23.832Z,5.10
2019-02-10T03:02:53.027Z,5.10
2019-02-10T03:05:22.077Z,5.10
2019-02-10T03:07:51.453Z,5.00
2019-02-10T03:10:20.549Z,5.00
2019-02-10T03:12:49.634Z,5.00
2019-02-10T03:15:18.761Z,5.00
2019-02-10T03:17:48.025Z,5.00
2019-02-10T03:20:17.142Z,5.10
2019-02-10T03:22:46.468Z,5.10
2019-02-10T03:25:16.597Z,5.10
2019-02-10T03:27:45.678Z,5.10
2019-02-10T03:30:14.815Z,5.10
2019-02-10T03:32:44.020Z,5.10
2019-02-10T03:35:13.295Z,5.10
2019-02-10T03:37:42.477Z,5.10
2019-02-10T03:40:11.590Z,5.10
2019-02-10T03:42:41.223Z,5.10
2019-02-10T03:45:10.446Z,5.10
2019-02-10T03:47:40.213Z,5.00
2019-02-10T03:50:09.504Z,5.00
2019-02-10T03:52:38.851Z,5.00
2019-02-10T03:55:08.254Z,5.00
2019-02-10T03:57:37.541Z,5.00
2019-02-10T04:00:06.941Z,5.00
2019-02-10T04:02:36.077Z,5.00
2019-02-10T04:05:05.555Z,5.00
2019-02-10T04:07:36.443Z,5.00
2019-02-10T04:10:06.296Z,4.90
2019-02-10T04:12:35.420Z,4.90
2019-02-10T04:15:05.301Z,4.90
2019-02-10T04:17:34.430Z,4.90
2019-02-10T04:20:03.626Z,4.90
2019-02-10T04:22:32.692Z,4.90
2019-02-10T04:25:01.785Z,4.90
2019-02-10T04:27:34.058Z,4.90
2019-02-10T04:30:03.274Z,4.90
2019-02-10T04:32:32.458Z,4.90
2019-02-10T04:35:01.579Z,4.90
2019-02-10T04:37:30.661Z,4.90
2019-02-10T04:40:01.839Z,4.90
2019-02-10T04:42:30.928Z,4.90
2019-02-10T04:45:00.028Z,4.90
2019-02-10T04:47:29.140Z,4.90
2019-02-10T04:49:58.209Z,4.90
2019-02-10T04:52:28.092Z,4.90
2019-02-10T04:54:58.873Z,4.90
2019-02-10T04:57:29.213Z,4.90
2019-02-10T04:59:58.679Z,4.90
2019-02-10T05:02:27.907Z,5.00
2019-02-10T05:04:57.420Z,5.00
2019-02-10T05:07:26.533Z,5.00
2019-02-10T05:09:55.620Z,5.00
2019-02-10T05:12:24.952Z,5.00
2019-02-10T05:14:54.039Z,5.00
2019-02-10T05:17:23.562Z,5.00
2019-02-10T05:19:53.028Z,4.90
2019-02-10T05:22:22.404Z,5.00
2019-02-10T05:24:51.903Z,4.90
2019-02-10T05:27:21.297Z,5.00
2019-02-10T05:29:50.409Z,4.90
2019-02-10T05:32:19.573Z,5.00
2019-02-10T05:34:48.649Z,5.00
2019-02-10T05:37:18.487Z,5.00
2019-02-10T05:39:48.349Z,5.00
2019-02-10T05:42:17.529Z,5.00
2019-02-10T05:44:46.931Z,5.00
2019-02-10T05:47:16.906Z,5.00
2019-02-10T05:49:46.048Z,5.00
2019-02-10T05:52:15.518Z,5.00
2019-02-10T05:54:45.002Z,5.00
2019-02-10T05:57:15.080Z,5.00
2019-02-10T05:59:44.142Z,5.00
2019-02-10T06:02:31.077Z,5.00
2019-02-10T06:05:03.234Z,5.00
2019-02-10T06:07:32.328Z,5.00
2019-02-10T06:10:01.566Z,5.10
2019-02-10T06:12:30.631Z,5.10
2019-02-10T06:14:59.736Z,5.10
2019-02-10T06:17:29.316Z,5.10
2019-02-10T06:19:58.389Z,5.20
2019-02-10T06:22:27.796Z,5.20
2019-02-10T06:24:57.164Z,5.20
2019-02-10T06:27:26.274Z,5.30
2019-02-10T06:29:55.772Z,5.30
2019-02-10T06:32:24.937Z,5.30
2019-02-10T06:34:56.471Z,5.30
2019-02-10T06:37:25.601Z,5.40
2019-02-10T06:39:54.946Z,5.40
2019-02-10T06:42:24.288Z,5.40
2019-02-10T06:44:53.660Z,5.40
2019-02-10T06:47:22.784Z,5.40
2019-02-10T06:49:51.937Z,5.40
2019-02-10T06:52:21.157Z,5.40
2019-02-10T06:54:56.252Z,5.40
2019-02-10T06:57:26.462Z,5.50
2019-02-10T07:00:05.753Z,5.50
2019-02-10T07:03:15.149Z,5.50
2019-02-10T07:05:44.257Z,5.50
2019-02-10T07:08:13.980Z,5.60
2019-02-10T07:10:43.057Z,5.50
2019-02-10T07:13:15.036Z,5.60
2019-02-10T07:16:20.152Z,5.60
2019-02-10T07:19:25.021Z,5.70
2019-02-10T07:21:54.441Z,5.70
2019-02-10T07:24:53.341Z,5.70
2019-02-10T07:27:28.717Z,5.80
2019-02-10T07:30:42.831Z,5.80
2019-02-10T07:33:51.717Z,5.80
2019-02-10T07:37:02.698Z,5.90
2019-02-10T07:40:18.900Z,5.90
2019-02-10T07:43:27.242Z,5.90
2019-02-10T07:46:12.712Z,5.90
2019-02-10T07:49:16.369Z,6.00
2019-02-10T07:52:17.243Z,6.00
2019-02-10T07:55:22.232Z,6.10
2019-02-10T07:58:31.605Z,6.20
2019-02-10T08:01:30.245Z,6.30
2019-02-10T08:04:30.899Z,6.40
2019-02-10T08:07:41.302Z,6.40
2019-02-10T08:10:43.918Z,6.50
2019-02-10T08:13:46.325Z,6.60
2019-02-10T08:16:37.533Z,6.70
2019-02-10T08:19:37.115Z,6.70
2019-02-10T08:22:42.158Z,6.80
2019-02-10T08:25:35.709Z,6.90
2019-02-10T08:28:39.705Z,6.90
2019-02-10T08:31:28.624Z,6.90
2019-02-10T08:34:23.530Z,7.00
2019-02-10T08:37:18.558Z,7.10
2019-02-10T08:40:16.675Z,7.10
2019-02-10T08:43:39.260Z,7.10
2019-02-10T08:46:35.859Z,7.10
2019-02-10T08:49:30.209Z,7.20
2019-02-10T08:52:39.680Z,7.20
2019-02-10T08:55:08.905Z,7.20
2019-02-10T08:57:37.896Z,7.20
2019-02-10T09:00:08.649Z,7.20
2019-02-10T09:02:37.844Z,7.20
2019-02-10T09:05:07.446Z,7.30
2019-02-10T09:07:36.516Z,7.30
2019-02-10T09:10:06.445Z,7.40
2019-02-10T09:12:35.730Z,7.40
2019-02-10T09:15:06.423Z,7.40
2019-02-10T09:17:35.549Z,7.40
2019-02-10T09:20:06.134Z,7.50
2019-02-10T09:22:35.299Z,7.40
2019-02-10T09:25:04.920Z,7.40
2019-02-10T09:27:34.093Z,7.40
2019-02-10T09:30:04.722Z,7.50
2019-02-10T09:32:33.817Z,7.50
2019-02-10T09:35:02.881Z,7.50
2019-02-10T09:37:31.974Z,7.60
2019-02-10T09:40:01.331Z,7.60
2019-02-10T09:42:30.541Z,7.60
2019-02-10T09:44:59.607Z,7.60
2019-02-10T09:47:28.764Z,7.70
2019-02-10T09:49:59.601Z,7.70
2019-02-10T09:52:28.857Z,7.80
2019-02-10T09:54:58.219Z,7.80
2019-02-10T09:57:28.201Z,7.80
2019-02-10T09:59:57.743Z,7.80
2019-02-10T10:02:27.032Z,7.80
2019-02-10T10:04:57.745Z,7.80
2019-02-10T10:07:27.108Z,7.80
2019-02-10T10:09:56.548Z,7.80
2019-02-10T10:12:25.710Z,7.80
2019-02-10T10:14:54.909Z,7.80
2019-02-10T10:17:24.837Z,7.80
2019-02-10T10:19:54.980Z,7.70
2019-02-10T10:22:24.738Z,7.70
2019-02-10T10:24:54.131Z,7.70
2019-02-10T10:27:23.573Z,7.70
2019-02-10T10:29:53.516Z,7.70
2019-02-10T10:32:22.714Z,7.70
2019-02-10T10:34:56.635Z,7.70
2019-02-10T10:37:26.231Z,7.70
2019-02-10T10:39:56.269Z,7.80
2019-02-10T10:42:25.368Z,7.80
2019-02-10T10:44:54.546Z,7.80
2019-02-10T10:47:23.684Z,7.80
2019-02-10T10:49:52.756Z,7.70
2019-02-10T10:52:23.203Z,7.70
2019-02-10T10:54:52.451Z,7.70
2019-02-10T10:57:21.572Z,7.70
2019-02-10T10:59:50.971Z,7.60
2019-02-10T11:02:20.093Z,7.60
2019-02-10T11:04:49.389Z,7.60
2019-02-10T11:07:18.925Z,7.60
2019-02-10T11:09:48.116Z,7.60
2019-02-10T11:12:17.463Z,7.60
2019-02-10T11:14:46.885Z,7.60
2019-02-10T11:17:16.500Z,7.60
2019-02-10T11:19:45.756Z,7.60
2019-02-10T11:22:14.869Z,7.60
2019-02-10T11:24:44.689Z,7.60
2019-02-10T11:27:13.899Z,7.60
2019-02-10T11:29:43.113Z,7.60
2019-02-10T11:32:12.332Z,7.60
2019-02-10T11:34:46.268Z,7.60
2019-02-10T11:37:12.723Z,7.60
2019-02-10T11:39:43.862Z,7.60
2019-02-10T11:42:12.917Z,7.60
2019-02-10T11:44:42.405Z,7.60
2019-02-10T11:47:12.010Z,7.60
2019-02-10T11:49:41.147Z,7.60
2019-02-10T11:52:10.241Z,7.60
2019-02-10T11:54:40.695Z,7.60
2019-02-10T11:57:09.776Z,7.70
2019-02-10T11:59:38.872Z,7.70
2019-02-10T12:02:08.034Z,7.70
2019-02-10T12:04:37.178Z,7.70
2019-02-10T12:07:06.298Z,7.80
2019-02-10T12:09:35.404Z,7.70
2019-02-10T12:12:04.570Z,7.80
2019-02-10T12:14:35.855Z,7.80
2019-02-10T12:17:05.056Z,7.90
2019-02-10T12:19:35.904Z,7.90
2019-02-10T12:22:05.125Z,7.90
2019-02-10T12:24:35.423Z,8.00
2019-02-10T12:27:05.360Z,8.10
2019-02-10T12:29:34.414Z,8.10
2019-02-10T12:32:05.473Z,8.20
2019-02-10T12:34:34.645Z,8.20
2019-02-10T12:37:05.230Z,8.30
2019-02-10T12:39:34.440Z,8.30
2019-02-10T12:42:04.929Z,8.30
2019-02-10T12:44:34.817Z,8.40
2019-02-10T12:47:04.020Z,8.40
2019-02-10T12:49:33.129Z,8.50
2019-02-10T12:52:02.579Z,8.50
2019-02-10T12:54:31.713Z,8.50
2019-02-10T12:57:00.788Z,8.60
2019-02-10T12:59:30.482Z,8.50
2019-02-10T13:01:59.637Z,8.60
2019-02-10T13:04:28.789Z,8.60
2019-02-10T13:06:57.884Z,8.50
2019-02-10T13:09:27.213Z,8.50
2019-02-10T13:11:58.392Z,8.50
2019-02-10T13:14:27.461Z,8.50
2019-02-10T13:16:56.597Z,8.50
2019-02-10T13:19:26.035Z,8.50
2019-02-10T13:21:55.014Z,8.50
2019-02-10T13:24:24.445Z,8.50
2019-02-10T13:26:53.510Z,8.50
2019-02-10T13:29:22.961Z,8.50
2019-02-10T13:31:52.039Z,8.50
2019-02-10T13:34:21.196Z,8.40
2019-02-10T13:36:50.381Z,8.50
2019-02-10T13:39:19.444Z,8.50
2019-02-10T13:41:47.024Z,8.60
2019-02-10T13:44:16.452Z,8.50
2019-02-10T13:46:45.522Z,8.50
2019-02-10T13:49:14.790Z,8.50
2019-02-10T13:51:44.188Z,8.50
2019-02-10T13:54:13.634Z,8.50
2019-02-10T13:56:43.008Z,8.50
2019-02-10T13:59:12.764Z,8.50
2019-02-10T14:01:41.836Z,8.40
2019-02-10T14:04:11.207Z,8.40
2019-02-10T14:06:40.592Z,8.30
2019-02-10T14:09:09.729Z,8.30
2019-02-10T14:11:38.825Z,8.30
2019-02-10T14:14:08.257Z,8.30
2019-02-10T14:16:37.381Z,8.20
2019-02-10T14:19:07.149Z,8.10
2019-02-10T14:21:36.564Z,8.10
2019-02-10T14:24:05.672Z,8.00
2019-02-10T14:26:35.093Z,8.00
2019-02-10T14:29:04.956Z,8.00
2019-02-10T14:31:34.193Z,8.00
2019-02-10T14:34:03.510Z,8.00
2019-02-10T14:36:32.756Z,8.00
2019-02-10T14:39:02.317Z,7.90
2019-02-10T14:41:31.774Z,8.00
2019-02-10T14:44:00.946Z,8.00
2019-02-10T14:46:32.732Z,7.90
2019-02-10T14:49:01.891Z,7.90
2019-02-10T14:51:31.413Z,7.80
2019-02-10T14:54:00.575Z,7.80
2019-02-10T14:56:33.425Z,7.80
2019-02-10T14:59:02.517Z,7.70
2019-02-10T15:01:31.611Z,7.70
2019-02-10T15:04:00.711Z,7.70
2019-02-10T15:06:29.727Z,7.70
2019-02-10T15:08:58.893Z,7.60
2019-02-10T15:11:27.988Z,7.60
2019-02-10T15:13:57.179Z,7.60
2019-02-10T15:16:26.256Z,7.60
2019-02-10T15:18:55.685Z,7.50
2019-02-10T15:21:25.429Z,7.50
2019-02-10T15:23:54.515Z,7.50
2019-02-10T15:26:23.771Z,7.40
2019-02-10T15:28:52.900Z,7.40
2019-02-10T15:31:21.986Z,7.40
2019-02-10T15:33:51.433Z,7.50
2019-02-10T15:36:20.592Z,7.50
2019-02-10T15:38:49.660Z,7.50
2019-02-10T15:41:18.797Z,7.40
2019-02-10T15:43:47.945Z,7.40
2019-02-10T15:46:17.461Z,7.40
2019-02-10T15:48:46.568Z,7.40
2019-02-10T15:51:15.720Z,7.30
2019-02-10T15:53:45.013Z,7.40
2019-02-10T15:56:14.555Z,7.40
2019-02-10T15:58:43.689Z,7.40
2019-02-10T16:01:13.636Z,7.40
2019-02-10T16:03:43.376Z,7.40
2019-02-10T16:06:12.488Z,7.40
2019-02-10T16:08:42.053Z,7.40
2019-02-10T16:11:11.306Z,7.40
2019-02-10T16:13:40.709Z,7.30
2019-02-10T16:16:09.842Z,7.30
2019-02-10T16:18:38.920Z,7.20
2019-02-10T16:21:08.121Z,7.20
2019-02-10T16:23:38.137Z,7.20
2019-02-10T16:26:07.240Z,7.20
2019-02-10T16:28:36.406Z,7.20
2019-02-10T16:31:05.583Z,7.20
2019-02-10T16:33:35.072Z,7.10
2019-02-10T16:36:04.243Z,7.10
2019-02-10T16:38:33.516Z,7.00
2019-02-10T16:41:06.525Z,7.00
2019-02-10T16:43:33.457Z,7.00
2019-02-10T16:46:02.660Z,6.90
2019-02-10T16:48:32.033Z,6.90
2019-02-10T16:51:01.401Z,6.90
2019-02-10T16:53:30.757Z,6.80
2019-02-10T16:56:02.148Z,6.80
2019-02-10T16:58:31.543Z,6.80
2019-02-10T17:01:01.892Z,6.80
2019-02-10T17:03:31.047Z,6.80
2019-02-10T17:06:00.144Z,6.70
2019-02-10T17:08:29.241Z,6.70
2019-02-10T17:10:58.629Z,6.70
2019-02-10T17:13:27.862Z,6.70
2019-02-10T17:16:04.779Z,6.70
2019-02-10T17:18:28.571Z,6.60
2019-02-10T17:20:57.761Z,6.60
2019-02-10T17:23:27.685Z,6.60
2019-02-10T17:25:57.370Z,6.50
2019-02-10T17:28:26.488Z,6.50
2019-02-10T17:30:55.753Z,6.50
2019-02-10T17:33:26.502Z,6.50
2019-02-10T17:35:56.448Z,6.40
2019-02-10T17:38:25.654Z,6.40
2019-02-10T17:41:02.348Z,6.40
2019-02-10T17:43:31.524Z,6.40
2019-02-10T17:46:00.863Z,6.40
2019-02-10T17:48:30.465Z,6.30
2019-02-10T17:50:59.595Z,6.30
2019-02-10T17:53:28.700Z,6.30
2019-02-10T17:55:57.887Z,6.20
2019-02-10T17:58:27.345Z,6.10
2019-02-10T18:00:56.517Z,6.10
2019-02-10T18:03:25.640Z,6.00
2019-02-10T18:05:54.825Z,5.90
2019-02-10T18:08:23.988Z,5.90
2019-02-10T18:10:53.741Z,5.90
2019-02-10T18:13:22.860Z,5.90
2019-02-10T18:16:11.124Z,5.80
2019-02-10T18:18:48.287Z,5.80
2019-02-10T18:21:35.058Z,5.80
2019-02-10T18:24:25.535Z,5.80
2019-02-10T18:27:04.588Z,5.80
2019-02-10T18:30:01.484Z,5.80
2019-02-10T18:32:58.837Z,5.80
2019-02-10T18:35:45.976Z,5.80
2019-02-10T18:38:21.144Z,5.80
2019-02-10T18:41:01.267Z,5.70
2019-02-10T18:43:37.009Z,5.70
2019-02-10T18:46:25.152Z,5.70
2019-02-10T18:49:13.017Z,5.70
2019-02-10T18:52:09.862Z,5.70
2019-02-10T18:54:48.280Z,5.70
2019-02-10T18:57:34.964Z,5.70
2019-02-10T19:00:30.296Z,5.70
2019-02-10T19:03:33.553Z,5.70
2019-02-10T19:06:11.832Z,5.70
2019-02-10T19:09:03.642Z,5.70
2019-02-10T19:11:46.240Z,5.70
2019-02-10T19:14:29.514Z,5.70
2019-02-10T19:17:13.641Z,5.70
2019-02-10T19:20:00.556Z,5.70
2019-02-10T19:22:55.335Z,5.70
2019-02-10T19:25:42.625Z,5.70
2019-02-10T19:28:36.757Z,5.70
2019-02-10T19:31:24.913Z,5.70
2019-02-10T19:34:05.352Z,5.80
2019-02-10T19:36:56.049Z,5.80
2019-02-10T19:39:38.243Z,5.80
2019-02-10T19:42:24.996Z,5.80
2019-02-10T19:45:05.367Z,5.80
2019-02-10T19:48:00.637Z,5.80
2019-02-10T19:50:48.853Z,5.80
2019-02-10T19:53:29.625Z,5.80
2019-02-10T19:56:07.854Z,5.80
2019-02-10T19:58:55.998Z,5.80
2019-02-10T20:01:59.523Z,5.80
2019-02-10T20:04:37.357Z,5.70
2019-02-10T20:07:16.963Z,5.80
2019-02-10T20:10:03.821Z,5.80
2019-02-10T20:12:41.946Z,5.70
2019-02-10T20:15:20.097Z,5.80
2019-02-10T20:18:06.785Z,5.70
2019-02-10T20:20:55.386Z,5.70
2019-02-10T20:23:42.501Z,5.70
2019-02-10T20:26:24.480Z,5.70
2019-02-10T20:29:11.587Z,5.70
2019-02-10T20:31:59.983Z,5.70
2019-02-10T20:34:52.989Z,5.70
2019-02-10T20:37:44.079Z,5.70
2019-02-10T20:40:33.575Z,5.70
2019-02-10T20:43:20.775Z,5.60
2019-02-10T20:46:12.416Z,5.60
2019-02-10T20:48:59.520Z,5.60
2019-02-10T20:51:46.255Z,5.50
2019-02-10T20:54:35.611Z,5.40
2019-02-10T20:57:26.969Z,5.40
2019-02-10T21:00:12.529Z,5.40
2019-02-10T21:02:46.512Z,5.40
2019-02-10T21:05:30.549Z,5.30
2019-02-10T21:08:09.744Z,5.30
2019-02-10T21:10:56.738Z,5.30
2019-02-10T21:13:43.642Z,5.30
2019-02-10T21:16:34.827Z,5.30
2019-02-10T21:19:19.488Z,5.20
2019-02-10T21:22:06.434Z,5.30
2019-02-10T21:24:41.566Z,5.30
2019-02-10T21:27:38.915Z,5.30
2019-02-10T21:30:25.768Z,5.30
2019-02-10T21:33:14.144Z,5.30
2019-02-10T21:36:01.653Z,5.30
2019-02-10T21:38:59.020Z,5.40
2019-02-10T21:41:35.000Z,5.40
2019-02-10T21:44:17.493Z,5.50
2019-02-10T21:46:54.675Z,5.50
2019-02-10T21:49:26.062Z,5.50
2019-02-10T21:51:55.606Z,5.50
2019-02-10T21:54:24.913Z,5.50
2019-02-10T21:56:55.509Z,5.50
2019-02-10T21:59:24.844Z,5.50
2019-02-10T22:01:54.724Z,5.50
2019-02-10T22:04:25.014Z,5.50
2019-02-10T22:06:54.608Z,5.50
2019-02-10T22:09:23.788Z,5.50
2019-02-10T22:11:54.751Z,5.50
2019-02-10T22:14:24.233Z,5.50
2019-02-10T22:16:53.841Z,5.50
2019-02-10T22:19:23.900Z,5.50
2019-02-10T22:21:53.216Z,5.50
2019-02-10T22:24:22.904Z,5.50
2019-02-10T22:26:51.997Z,5.50
2019-02-10T22:29:21.100Z,5.50
2019-02-10T22:31:50.531Z,5.60
2019-02-10T22:34:19.972Z,5.50
2019-02-10T22:36:49.245Z,5.60
2019-02-10T22:39:18.349Z,5.50
2019-02-10T22:41:47.387Z,5.50
2019-02-10T22:44:16.509Z,5.40
2019-02-10T22:46:46.074Z,5.40
2019-02-10T22:49:15.234Z,5.40
2019-02-10T22:51:44.470Z,5.40
2019-02-10T22:54:13.570Z,5.40
2019-02-10T22:56:42.667Z,5.40
2019-02-10T22:59:11.686Z,5.40
2019-02-10T23:01:40.802Z,5.40
2019-02-10T23:04:09.928Z,5.40
2019-02-10T23:06:39.260Z,5.40
2019-02-10T23:09:13.640Z,5.40
2019-02-10T23:11:43.334Z,5.40
2019-02-10T23:14:12.405Z,5.30
2019-02-10T23:16:41.520Z,5.30
2019-02-10T23:19:10.899Z,5.20
2019-02-10T23:21:40.116Z,5.10
2019-02-10T23:24:09.220Z,5.10
2019-02-10T23:26:38.312Z,5.00
2019-02-10T23:29:07.398Z,5.00
2019-02-10T23:31:36.709Z,4.90
2019-02-10T23:34:05.908Z,4.90
2019-02-10T23:36:35.000Z,4.90
2019-02-10T23:39:05.444Z,4.80
2019-02-10T23:41:34.544Z,4.80
2019-02-10T23:44:03.682Z,4.80
2019-02-10T23:46:32.818Z,4.70
2019-02-10T23:49:01.911Z,4.70
2019-02-10T23:51:31.509Z,4.70
2019-02-10T23:54:01.017Z,4.60
2019-02-10T23:56:30.668Z,4.60
2019-02-10T23:58:59.792Z,4.60
